Time;durP1;ratioP1;P1;durP2;ratioP2;P2;SDS_P1;SDS_P2;PMS_P1;PMS_P2;Temp;Humidity;BMP_temperature;BMP_pressure;BME280_temperature;BME280_humidity;BME280_pressure;Samples;Min_cycle;Max_cycle;Signal;HPM_P1;HPM_P2
2022/06/10 00:00:45;;;;;;;5.32;2.80;;;;;;;;;;5035165;28;20045;-86
2022/06/10 00:03:15;;;;;;;6.63;2.60;;;;;;;;;;5034948;28;20072;-86
2022/06/10 00:05:47;;;;;;;6.68;3.20;;;;;;;;;;5046334;28;20036;-95
2022/06/10 00:08:21;;;;;;;5.70;2.90;;;;;;;;;;5018638;28;20037;-95
2022/06/10 00:10:50;;;;;;;9.90;3.25;;;;;;;;;;5001129;28;20072;-94
2022/06/10 00:13:19;;;;;;;5.38;2.92;;;;;;;;;;5017588;28;20044;-94
2022/06/10 00:15:48;;;;;;;5.50;2.95;;;;;;;;;;5029464;28;20060;-94
2022/06/10 00:18:16;;;;;;;6.18;3.30;;;;;;;;;;5032230;28;20404;-94
2022/06/10 00:20:45;;;;;;;7.68;3.08;;;;;;;;;;5034783;28;20133;-94
2022/06/10 00:23:13;;;;;;;4.97;3.28;;;;;;;;;;5031030;28;20067;-95
2022/06/10 00:25:43;;;;;;;4.75;2.80;;;;;;;;;;5000119;28;20049;-94
2022/06/10 00:28:13;;;;;;;7.53;3.28;;;;;;;;;;5029603;28;20038;-94
2022/06/10 00:30:42;;;;;;;10.48;3.20;;;;;;;;;;5043113;28;20045;-93
2022/06/10 00:33:35;;;;;;;6.05;3.13;;;;;;;;;;5021556;28;20080;-93
2022/06/10 00:36:08;;;;;;;7.40;3.40;;;;;;;;;;5044729;28;20037;-93
2022/06/10 00:38:41;;;;;;;7.82;3.30;;;;;;;;;;5019983;28;20033;-86
2022/06/10 00:41:09;;;;;;;8.52;3.63;;;;;;;;;;5035055;28;20509;-87
2022/06/10 00:43:41;;;;;;;6.65;3.70;;;;;;;;;;5035266;28;20052;-86
2022/06/10 00:46:30;;;;;;;6.18;3.10;;;;;;;;;;5035854;28;20061;-86
2022/06/10 00:49:13;;;;;;;6.20;3.10;;;;;;;;;;5038131;28;20056;-87
2022/06/10 00:51:51;;;;;;;7.72;3.08;;;;;;;;;;5005677;28;20056;-87
2022/06/10 00:54:22;;;;;;;6.78;3.25;;;;;;;;;;5038229;28;20077;-87
2022/06/10 00:57:06;;;;;;;5.68;2.95;;;;;;;;;;5037929;28;20057;-87
2022/06/10 00:59:55;;;;;;;6.72;3.10;;;;;;;;;;5038407;28;20404;-86
2022/06/10 01:02:33;;;;;;;8.23;3.33;;;;;;;;;;5038276;28;20076;-86
2022/06/10 01:05:09;;;;;;;5.68;3.13;;;;;;;;;;5038742;28;20120;-87
2022/06/10 01:07:52;;;;;;;10.82;3.38;;;;;;;;;;5035721;28;20056;-86
2022/06/10 01:10:19;;;;;;;9.70;3.47;;;;;;;;;;5035856;28;20045;-86
2022/06/10 01:13:25;;;;;;;6.68;3.60;;;;;;;;;;5035808;28;20050;-87
2022/06/10 01:16:50;;;;;;;9.25;3.55;;;;;;;;;;5037522;28;20056;-86
2022/06/10 01:19:42;;;;;;;8.32;3.38;;;;;;;;;;5038160;28;20132;-86
2022/06/10 01:22:30;;;;;;;6.97;3.05;;;;;;;;;;5038652;28;20053;-87
2022/06/10 01:25:36;;;;;;;9.10;3.83;;;;;;;;;;5036619;28;20071;-87
2022/06/10 01:28:10;;;;;;;7.75;3.72;;;;;;;;;;5037334;28;20045;-86
2022/06/10 01:31:11;;;;;;;6.45;3.40;;;;;;;;;;5035984;28;20041;-86
2022/06/10 01:34:06;;;;;;;4.90;3.00;;;;;;;;;;5047058;28;20064;-94
2022/06/10 01:36:46;;;;;;;8.23;3.20;;;;;;;;;;5019081;28;20088;-95
2022/06/10 01:39:16;;;;;;;5.70;3.58;;;;;;;;;;5051017;28;20042;-95
2022/06/10 01:42:09;;;;;;;9.02;3.42;;;;;;;;;;5017293;28;20051;-95
2022/06/10 01:44:56;;;;;;;8.52;3.92;;;;;;;;;;5029494;28;20076;-94
2022/06/10 01:47:57;;;;;;;6.20;3.63;;;;;;;;;;5053892;28;20424;-95
2022/06/10 01:50:41;;;;;;;4.63;2.72;;;;;;;;;;4997540;28;20410;-87
2022/06/10 01:53:50;;;;;;;7.80;2.88;;;;;;;;;;5035836;28;20045;-87
2022/06/10 01:56:34;;;;;;;7.68;3.40;;;;;;;;;;5019914;28;20045;-94
2022/06/10 01:59:25;;;;;;;5.72;3.15;;;;;;;;;;5002414;28;20414;-95
2022/06/10 02:05:24;;;;;;;5.55;2.85;;;;;;;;;;5016506;28;20083;-94
2022/06/10 02:08:11;;;;;;;6.00;3.00;;;;;;;;;;5048520;28;20067;-95
2022/06/10 02:10:49;;;;;;;6.57;2.90;;;;;;;;;;5030917;28;20045;-87
2022/06/10 02:13:22;;;;;;;6.68;2.95;;;;;;;;;;5034441;28;20123;-86
2022/06/10 02:15:54;;;;;;;6.93;3.60;;;;;;;;;;5037438;28;20060;-95
2022/06/10 02:18:34;;;;;;;4.32;3.00;;;;;;;;;;5033066;28;20104;-95
2022/06/10 02:21:10;;;;;;;8.70;3.80;;;;;;;;;;5048905;28;20060;-94
2022/06/10 02:23:48;;;;;;;8.27;3.83;;;;;;;;;;5017621;28;20626;-94
2022/06/10 02:26:22;;;;;;;6.38;3.20;;;;;;;;;;5035759;28;20044;-95
2022/06/10 02:29:21;;;;;;;8.00;3.60;;;;;;;;;;5037905;28;20038;-86
2022/06/10 02:31:56;;;;;;;7.13;3.13;;;;;;;;;;5035519;28;20391;-87
2022/06/10 02:34:49;;;;;;;5.65;3.10;;;;;;;;;;5046067;28;20041;-94
2022/06/10 02:37:30;;;;;;;11.27;4.95;;;;;;;;;;5031961;28;20045;-94
2022/06/10 02:40:02;;;;;;;8.55;4.03;;;;;;;;;;5015977;28;20061;-93
2022/06/10 02:42:45;;;;;;;8.57;3.90;;;;;;;;;;5027424;28;20060;-95
2022/06/10 02:45:51;;;;;;;4.50;3.00;;;;;;;;;;4997501;28;20046;-94
2022/06/10 02:48:56;;;;;;;5.38;3.20;;;;;;;;;;5000863;28;20049;-94
2022/06/10 02:51:25;;;;;;;5.72;3.38;;;;;;;;;;5030291;28;20060;-94
2022/06/10 02:53:53;;;;;;;8.85;4.05;;;;;;;;;;5031268;28;20052;-95
2022/06/10 02:56:47;;;;;;;6.38;3.60;;;;;;;;;;5034002;28;20122;-94
2022/06/10 03:02:23;;;;;;;6.90;3.30;;;;;;;;;;5035552;28;20148;-86
2022/06/10 03:05:24;;;;;;;6.50;3.58;;;;;;;;;;5035268;28;20050;-87
2022/06/10 03:08:18;;;;;;;6.82;3.60;;;;;;;;;;5035061;28;20114;-87
2022/06/10 03:11:17;;;;;;;7.10;3.25;;;;;;;;;;5034026;28;20048;-86
2022/06/10 03:14:14;;;;;;;5.60;3.50;;;;;;;;;;5035157;28;20040;-87
2022/06/10 03:17:32;;;;;;;8.38;3.42;;;;;;;;;;5035031;28;20163;-87
2022/06/10 03:20:14;;;;;;;7.53;4.10;;;;;;;;;;5034741;28;20076;-86
2022/06/10 03:23:12;;;;;;;9.38;4.00;;;;;;;;;;5036040;28;20502;-86
2022/06/10 03:26:20;;;;;;;9.48;3.40;;;;;;;;;;5036519;28;20459;-87
2022/06/10 03:28:55;;;;;;;8.38;3.63;;;;;;;;;;5037036;28;20046;-87
2022/06/10 03:31:48;;;;;;;8.00;3.95;;;;;;;;;;5034153;28;20053;-85
2022/06/10 03:34:28;;;;;;;8.77;3.88;;;;;;;;;;5035905;28;20052;-86
2022/06/10 03:37:00;;;;;;;10.80;4.13;;;;;;;;;;5036605;28;20118;-86
2022/06/10 03:39:28;;;;;;;9.65;4.18;;;;;;;;;;5034565;28;20065;-86
2022/06/10 03:42:13;;;;;;;7.00;4.50;;;;;;;;;;5033303;28;20036;-86
2022/06/10 03:45:06;;;;;;;6.88;3.78;;;;;;;;;;5035647;28;20047;-86
2022/06/10 03:47:57;;;;;;;10.45;4.10;;;;;;;;;;5036288;28;20439;-87
2022/06/10 03:50:30;;;;;;;8.55;4.28;;;;;;;;;;5017992;28;20064;-86
2022/06/10 03:52:57;;;;;;;9.73;4.55;;;;;;;;;;5036686;28;20059;-86
2022/06/10 03:55:25;;;;;;;9.02;4.60;;;;;;;;;;5018892;28;20571;-86
2022/06/10 03:57:53;;;;;;;9.85;5.22;;;;;;;;;;5032687;28;20136;-85
2022/06/10 04:00:27;;;;;;;9.93;5.30;;;;;;;;;;5033321;28;20141;-87
2022/06/10 04:03:27;;;;;;;8.02;5.03;;;;;;;;;;5034414;28;20502;-86
2022/06/10 04:05:55;;;;;;;13.15;6.15;;;;;;;;;;5035465;28;20057;-89
2022/06/10 04:08:43;;;;;;;10.85;5.00;;;;;;;;;;5035949;28;20065;-89
2022/06/10 04:11:11;;;;;;;13.15;4.80;;;;;;;;;;5036385;28;20179;-89
2022/06/10 04:13:39;;;;;;;11.80;5.60;;;;;;;;;;5031529;28;20052;-89
2022/06/10 04:16:07;;;;;;;7.78;5.03;;;;;;;;;;5035303;28;20152;-89
2022/06/10 04:18:39;;;;;;;10.90;5.22;;;;;;;;;;5016440;28;20111;-86
2022/06/10 04:21:07;;;;;;;10.32;5.20;;;;;;;;;;5036056;28;20041;-86
2022/06/10 04:23:35;;;;;;;9.82;4.80;;;;;;;;;;5038824;28;20049;-89
2022/06/10 04:26:03;;;;;;;9.52;5.43;;;;;;;;;;5040400;28;20055;-89
2022/06/10 04:28:35;;;;;;;8.32;4.65;;;;;;;;;;5036864;28;20090;-89
2022/06/10 04:31:07;;;;;;;7.47;4.90;;;;;;;;;;5037024;28;20049;-89
2022/06/10 04:33:35;;;;;;;10.98;5.10;;;;;;;;;;5039443;28;20049;-92
2022/06/10 04:36:13;;;;;;;9.00;5.03;;;;;;;;;;5042596;28;20119;-92
2022/06/10 04:38:41;;;;;;;10.65;5.10;;;;;;;;;;5043685;28;20059;-92
2022/06/10 04:41:11;;;;;;;12.88;5.55;;;;;;;;;;5021141;28;20053;-91
2022/06/10 04:44:03;;;;;;;12.98;4.80;;;;;;;;;;5032514;28;20041;-93
2022/06/10 04:46:38;;;;;;;15.07;5.38;;;;;;;;;;5023307;28;20952;-93
2022/06/10 04:49:11;;;;;;;10.18;5.45;;;;;;;;;;5023325;28;20068;-92
2022/06/10 04:51:39;;;;;;;11.25;5.63;;;;;;;;;;5036217;28;20069;-93
2022/06/10 04:54:08;;;;;;;11.05;5.05;;;;;;;;;;5004008;28;20631;-93
2022/06/10 04:56:37;;;;;;;13.90;5.05;;;;;;;;;;5019797;28;20046;-93
2022/06/10 04:59:53;;;;;;;11.15;5.07;;;;;;;;;;5027077;28;21064;-93
2022/06/10 05:02:21;;;;;;;9.68;4.60;;;;;;;;;;5012420;28;20052;-93
2022/06/10 05:05:13;;;;;;;17.05;4.93;;;;;;;;;;4994782;28;20906;-93
2022/06/10 05:07:41;;;;;;;11.98;4.75;;;;;;;;;;5023488;28;20041;-92
2022/06/10 05:10:12;;;;;;;12.35;5.32;;;;;;;;;;5021830;28;20157;-92
2022/06/10 05:12:39;;;;;;;8.25;4.55;;;;;;;;;;5006100;28;20059;-85
2022/06/10 05:15:07;;;;;;;9.27;5.25;;;;;;;;;;5034177;28;20131;-84
2022/06/10 05:17:59;;;;;;;11.73;4.40;;;;;;;;;;5035131;28;20055;-84
2022/06/10 05:20:32;;;;;;;10.45;5.57;;;;;;;;;;5034145;28;20048;-84
2022/06/10 05:23:01;;;;;;;12.68;5.32;;;;;;;;;;5033132;28;20522;-84
2022/06/10 05:25:30;;;;;;;13.35;5.53;;;;;;;;;;5035305;28;20037;-83
2022/06/10 05:27:57;;;;;;;10.13;5.22;;;;;;;;;;5034688;28;20072;-84
2022/06/10 05:30:28;;;;;;;13.38;4.43;;;;;;;;;;5033741;28;20041;-84
2022/06/10 05:33:21;;;;;;;10.43;4.40;;;;;;;;;;5034528;28;20033;-86
2022/06/10 05:35:53;;;;;;;13.73;5.40;;;;;;;;;;5030019;28;20176;-84
2022/06/10 05:38:21;;;;;;;14.00;4.72;;;;;;;;;;5034100;28;20771;-83
2022/06/10 05:43:59;;;;;;;10.05;4.50;;;;;;;;;;5031796;28;20052;-84
2022/06/10 05:46:27;;;;;;;13.40;5.15;;;;;;;;;;5033340;28;20520;-84
2022/06/10 05:48:55;;;;;;;10.30;4.45;;;;;;;;;;5032586;28;20061;-85
2022/06/10 05:51:49;;;;;;;9.73;4.32;;;;;;;;;;5031909;28;20041;-84
2022/06/10 05:54:24;;;;;;;11.73;4.53;;;;;;;;;;5031894;28;20048;-86
2022/06/10 05:59:52;;;;;;;16.88;4.47;;;;;;;;;;5034108;28;20076;-84
2022/06/10 06:02:21;;;;;;;11.90;4.75;;;;;;;;;;5026791;28;20072;-87
2022/06/10 06:04:55;;;;;;;8.68;3.67;;;;;;;;;;5033083;28;20186;-85
2022/06/10 06:07:26;;;;;;;7.20;3.55;;;;;;;;;;5033424;28;20057;-85
2022/06/10 06:09:59;;;;;;;8.32;4.03;;;;;;;;;;5034212;28;20041;-85
2022/06/10 06:12:27;;;;;;;10.43;3.85;;;;;;;;;;5031897;28;20159;-85
2022/06/10 06:15:06;;;;;;;10.27;3.50;;;;;;;;;;5032901;28;20088;-85
2022/06/10 06:17:33;;;;;;;13.63;3.70;;;;;;;;;;5030018;28;20080;-85
2022/06/10 06:20:06;;;;;;;7.30;3.40;;;;;;;;;;5032089;28;20123;-85
2022/06/10 06:22:33;;;;;;;7.80;2.60;;;;;;;;;;5034140;28;20410;-85
2022/06/10 06:25:01;;;;;;;9.75;3.90;;;;;;;;;;5034795;28;20073;-85
2022/06/10 06:27:29;;;;;;;8.63;2.60;;;;;;;;;;5034917;28;20041;-85
2022/06/10 06:29:59;;;;;;;6.32;2.90;;;;;;;;;;5031692;28;20564;-85
2022/06/10 06:32:31;;;;;;;8.00;2.50;;;;;;;;;;5026987;28;20045;-85
2022/06/10 06:35:03;;;;;;;10.82;3.65;;;;;;;;;;5030438;28;20049;-85
2022/06/10 06:37:31;;;;;;;7.95;2.78;;;;;;;;;;5034373;28;20103;-85
2022/06/10 06:39:59;;;;;;;10.93;2.78;;;;;;;;;;5032491;28;20092;-85
2022/06/10 06:42:31;;;;;;;8.90;2.33;;;;;;;;;;5034249;28;20442;-85
2022/06/10 06:45:01;;;;;;;9.82;2.50;;;;;;;;;;5031418;28;20041;-86
2022/06/10 06:48:14;;;;;;;6.47;2.30;;;;;;;;;;5027555;28;20179;-85
2022/06/10 06:50:48;;;;;;;11.45;2.50;;;;;;;;;;5032717;28;20045;-85
2022/06/10 06:53:18;;;;;;;10.45;2.08;;;;;;;;;;5012498;28;20045;-85
2022/06/10 06:55:45;;;;;;;6.38;2.25;;;;;;;;;;5029159;28;20131;-85
2022/06/10 06:58:17;;;;;;;11.73;2.55;;;;;;;;;;5033256;28;20053;-84
2022/06/10 07:00:46;;;;;;;7.82;2.50;;;;;;;;;;5029622;28;20065;-85
2022/06/10 07:03:13;;;;;;;6.00;2.55;;;;;;;;;;5015929;28;20044;-85
2022/06/10 07:06:05;;;;;;;8.75;1.85;;;;;;;;;;5018040;28;20175;-85
2022/06/10 07:08:57;;;;;;;9.75;2.00;;;;;;;;;;5031782;28;20116;-85
2022/06/10 07:11:25;;;;;;;5.38;1.33;;;;;;;;;;5012231;28;20037;-85
2022/06/10 07:13:53;;;;;;;5.82;1.45;;;;;;;;;;5031352;28;20116;-85
2022/06/10 07:16:21;;;;;;;8.57;1.25;;;;;;;;;;5027102;28;20625;-85
2022/06/10 07:18:51;;;;;;;9.13;2.03;;;;;;;;;;5031823;28;20041;-85
2022/06/10 07:21:19;;;;;;;5.55;1.30;;;;;;;;;;5027064;28;20499;-85
2022/06/10 07:23:51;;;;;;;7.22;1.92;;;;;;;;;;5029483;28;20049;-85
2022/06/10 07:26:19;;;;;;;5.53;1.30;;;;;;;;;;5030419;28;20044;-85
2022/06/10 07:28:47;;;;;;;7.93;1.40;;;;;;;;;;5032848;28;20057;-85
2022/06/10 07:31:15;;;;;;;5.38;1.17;;;;;;;;;;5029353;28;20060;-85
2022/06/10 07:33:47;;;;;;;5.13;1.20;;;;;;;;;;5031367;28;20043;-86
2022/06/10 07:36:15;;;;;;;6.63;1.55;;;;;;;;;;5031230;28;20053;-86
2022/06/10 07:38:43;;;;;;;5.68;1.73;;;;;;;;;;5030377;28;20041;-85
2022/06/10 07:43:57;;;;;;;10.40;2.00;;;;;;;;;;5027798;28;20136;-86
2022/06/10 07:46:29;;;;;;;8.20;1.63;;;;;;;;;;5026715;28;20625;-85
2022/06/10 07:48:57;;;;;;;4.55;1.35;;;;;;;;;;5028260;28;20053;-85
2022/06/10 07:51:31;;;;;;;4.90;1.10;;;;;;;;;;5033116;28;20072;-84
2022/06/10 07:53:59;;;;;;;6.53;1.50;;;;;;;;;;5029091;28;20050;-85
2022/06/10 07:56:28;;;;;;;5.22;1.45;;;;;;;;;;5032697;28;20045;-85
2022/06/10 07:58:58;;;;;;;8.52;1.50;;;;;;;;;;5034119;28;20407;-85
2022/06/10 08:01:27;;;;;;;7.75;1.50;;;;;;;;;;5030810;28;20479;-85
2022/06/10 08:04:06;;;;;;;7.57;1.42;;;;;;;;;;4999993;28;20128;-85
2022/06/10 08:06:40;;;;;;;7.18;1.42;;;;;;;;;;5034643;28;20045;-85
2022/06/10 08:09:07;;;;;;;6.22;1.38;;;;;;;;;;5033909;28;20048;-85
2022/06/10 08:11:36;;;;;;;7.03;1.50;;;;;;;;;;5031695;28;20498;-85
2022/06/10 08:14:06;;;;;;;5.70;1.45;;;;;;;;;;5030826;28;20045;-87
2022/06/10 08:16:36;;;;;;;8.93;1.45;;;;;;;;;;5001011;28;20465;-84
2022/06/10 08:19:04;;;;;;;7.93;1.55;;;;;;;;;;5033886;28;20056;-83
2022/06/10 08:24:20;;;;;;;6.78;1.70;;;;;;;;;;5035344;28;20073;-84
2022/06/10 08:26:52;;;;;;;6.53;1.45;;;;;;;;;;5034505;28;20064;-84
2022/06/10 08:29:19;;;;;;;9.48;1.77;;;;;;;;;;5034388;28;20052;-84
2022/06/10 08:32:13;;;;;;;5.72;1.27;;;;;;;;;;5032902;28;20029;-84
2022/06/10 08:34:41;;;;;;;3.78;1.25;;;;;;;;;;5034697;28;20489;-83
2022/06/10 08:37:10;;;;;;;3.90;1.30;;;;;;;;;;5034605;28;20137;-84
2022/06/10 08:39:37;;;;;;;5.18;1.15;;;;;;;;;;5033427;28;20045;-84
2022/06/10 08:42:35;;;;;;;7.90;1.88;;;;;;;;;;5036208;28;20398;-83
2022/06/10 08:45:18;;;;;;;16.45;2.40;;;;;;;;;;5027072;28;20125;-84
2022/06/10 08:48:27;;;;;;;7.03;1.48;;;;;;;;;;5035118;28;20045;-84
2022/06/10 08:51:23;;;;;;;6.03;1.60;;;;;;;;;;4973930;28;20055;-84
2022/06/10 08:54:15;;;;;;;7.65;1.35;;;;;;;;;;4975562;28;20072;-84
2022/06/10 08:56:51;;;;;;;10.73;1.92;;;;;;;;;;4972268;28;20054;-84
2022/06/10 08:59:33;;;;;;;6.38;1.15;;;;;;;;;;4974980;28;20043;-83
2022/06/10 09:02:10;;;;;;;5.35;1.50;;;;;;;;;;4973629;28;20112;-84
2022/06/10 09:05:08;;;;;;;6.93;1.48;;;;;;;;;;4973567;28;20492;-84
2022/06/10 09:07:58;;;;;;;6.45;1.30;;;;;;;;;;4972357;28;20082;-84
2022/06/10 09:10:33;;;;;;;5.97;1.80;;;;;;;;;;4972014;28;20061;-84
2022/06/10 09:13:24;;;;;;;7.07;2.15;;;;;;;;;;4973211;28;20531;-84
2022/06/10 09:16:04;;;;;;;6.22;1.60;;;;;;;;;;4972229;28;20420;-84
2022/06/10 09:19:10;;;;;;;6.70;1.88;;;;;;;;;;4972063;28;20069;-84
2022/06/10 09:22:10;;;;;;;8.65;1.80;;;;;;;;;;4970501;28;20039;-84
2022/06/10 09:24:47;;;;;;;9.38;1.98;;;;;;;;;;4972268;28;20050;-84
2022/06/10 09:27:29;;;;;;;6.90;1.88;;;;;;;;;;5023965;28;20064;-82
2022/06/10 09:30:30;;;;;;;6.30;2.03;;;;;;;;;;5033407;28;20084;-82
2022/06/10 09:33:14;;;;;;;7.45;2.17;;;;;;;;;;5032028;28;20076;-82
2022/06/10 09:36:02;;;;;;;5.78;1.63;;;;;;;;;;5033708;28;20045;-82
2022/06/10 09:38:50;;;;;;;8.18;1.55;;;;;;;;;;5035001;28;20044;-82
2022/06/10 09:41:39;;;;;;;5.38;1.60;;;;;;;;;;5030903;28;20041;-82
2022/06/10 09:44:10;;;;;;;6.55;1.60;;;;;;;;;;5033923;28;20037;-82
2022/06/10 09:47:14;;;;;;;9.50;1.50;;;;;;;;;;5033318;28;20077;-82
2022/06/10 09:50:14;;;;;;;4.47;1.20;;;;;;;;;;5029222;28;20069;-83
2022/06/10 09:53:14;;;;;;;5.40;1.70;;;;;;;;;;5031199;28;20164;-82
2022/06/10 09:56:05;;;;;;;5.43;1.58;;;;;;;;;;5033995;28;20056;-82
2022/06/10 09:59:07;;;;;;;5.55;1.70;;;;;;;;;;5020009;28;20061;-82
2022/06/10 10:01:47;;;;;;;5.75;1.50;;;;;;;;;;5034489;28;20053;-82
2022/06/10 10:04:45;;;;;;;5.83;1.77;;;;;;;;;;5035852;28;20056;-82
2022/06/10 10:07:39;;;;;;;3.90;1.40;;;;;;;;;;5035365;28;20147;-82
2022/06/10 10:10:33;;;;;;;7.10;1.45;;;;;;;;;;5033726;28;20038;-82
2022/06/10 10:13:43;;;;;;;3.70;1.50;;;;;;;;;;5033196;28;21455;-82
2022/06/10 10:17:10;;;;;;;6.68;2.15;;;;;;;;;;5008918;28;20049;-82
2022/06/10 10:20:19;;;;;;;8.18;1.75;;;;;;;;;;5011139;28;20038;-82
2022/06/10 10:22:50;;;;;;;7.97;1.58;;;;;;;;;;5008527;28;20115;-82
2022/06/10 10:25:22;;;;;;;7.22;1.67;;;;;;;;;;5008106;28;20087;-82
2022/06/10 10:27:56;;;;;;;8.68;2.15;;;;;;;;;;5008905;28;20081;-82
2022/06/10 10:30:32;;;;;;;5.60;1.80;;;;;;;;;;5012189;28;20056;-82
2022/06/10 10:33:06;;;;;;;4.63;1.70;;;;;;;;;;5006959;28;20474;-82
2022/06/10 10:35:49;;;;;;;8.35;2.13;;;;;;;;;;5009355;28;20053;-82
2022/06/10 10:38:36;;;;;;;6.22;1.83;;;;;;;;;;5006613;28;20045;-82
2022/06/10 10:41:26;;;;;;;7.07;1.70;;;;;;;;;;5008386;28;20052;-82
2022/06/10 10:44:05;;;;;;;7.15;1.88;;;;;;;;;;5008254;28;20046;-82
2022/06/10 10:46:55;;;;;;;8.37;1.70;;;;;;;;;;5004640;28;20061;-82
2022/06/10 10:50:15;;;;;;;5.05;2.00;;;;;;;;;;5007331;28;20335;-82
2022/06/10 10:52:48;;;;;;;6.75;1.58;;;;;;;;;;5016537;28;20072;-82
2022/06/10 10:55:23;;;;;;;8.55;1.77;;;;;;;;;;4999691;28;20049;-82
2022/06/10 10:57:59;;;;;;;7.28;1.80;;;;;;;;;;5032035;28;20045;-82
2022/06/10 11:00:36;;;;;;;9.00;2.28;;;;;;;;;;5002684;28;20107;-82
2022/06/10 11:03:34;;;;;;;9.35;1.60;;;;;;;;;;5032378;28;20415;-82
2022/06/10 11:06:05;;;;;;;3.97;1.48;;;;;;;;;;5033174;28;20132;-82
2022/06/10 11:09:22;;;;;;;7.20;1.52;;;;;;;;;;5029959;28;20106;-81
2022/06/10 11:12:04;;;;;;;6.43;1.88;;;;;;;;;;5029883;28;20430;-82
2022/06/10 11:14:35;;;;;;;4.72;1.60;;;;;;;;;;5030794;28;20545;-82
2022/06/10 11:17:13;;;;;;;6.18;1.48;;;;;;;;;;5029067;28;20167;-82
2022/06/10 11:20:22;;;;;;;7.45;1.42;;;;;;;;;;5031865;28;20048;-82
2022/06/10 11:22:49;;;;;;;6.03;1.35;;;;;;;;;;4966336;28;20067;-82
2022/06/10 11:25:24;;;;;;;6.65;1.50;;;;;;;;;;4967479;28;20071;-82
2022/06/10 11:28:01;;;;;;;6.35;1.77;;;;;;;;;;4969904;28;20133;-82
2022/06/10 11:30:42;;;;;;;6.60;1.92;;;;;;;;;;4968742;28;20054;-82
2022/06/10 11:33:20;;;;;;;5.18;1.45;;;;;;;;;;4967613;28;20077;-82
2022/06/10 11:36:07;;;;;;;4.70;1.52;;;;;;;;;;4967804;28;20113;-82
2022/06/10 11:38:45;;;;;;;6.72;1.60;;;;;;;;;;4970112;28;20063;-82
2022/06/10 11:41:28;;;;;;;5.53;1.70;;;;;;;;;;4969844;28;20042;-82
2022/06/10 11:44:20;;;;;;;7.15;1.70;;;;;;;;;;4969815;28;20056;-83
2022/06/10 11:46:54;;;;;;;7.53;1.65;;;;;;;;;;4967323;28;20046;-83
2022/06/10 11:49:30;;;;;;;6.18;1.55;;;;;;;;;;4969337;28;20050;-83
2022/06/10 11:52:32;;;;;;;4.10;1.45;;;;;;;;;;4969528;28;20201;-83
2022/06/10 11:55:11;;;;;;;10.02;1.95;;;;;;;;;;4972245;28;20077;-82
2022/06/10 12:00:55;;;;;;;6.07;1.60;;;;;;;;;;5027591;28;20073;-82
2022/06/10 12:03:34;;;;;;;6.68;1.70;;;;;;;;;;5032185;28;20056;-82
2022/06/10 12:06:15;;;;;;;7.47;2.00;;;;;;;;;;5032323;28;20080;-82
2022/06/10 12:08:57;;;;;;;4.95;1.98;;;;;;;;;;5030075;28;20045;-83
2022/06/10 12:11:37;;;;;;;6.47;1.70;;;;;;;;;;5011683;28;20068;-82
2022/06/10 12:14:16;;;;;;;4.97;1.50;;;;;;;;;;5027750;28;20095;-82
2022/06/10 12:16:55;;;;;;;5.55;1.88;;;;;;;;;;5026472;28;20068;-83
2022/06/10 12:19:42;;;;;;;6.80;1.52;;;;;;;;;;5026608;28;20052;-82
2022/06/10 12:22:10;;;;;;;5.97;1.58;;;;;;;;;;5028929;28;20048;-82
2022/06/10 12:24:38;;;;;;;8.27;1.95;;;;;;;;;;5028706;28;20041;-83
2022/06/10 12:27:15;;;;;;;5.40;1.70;;;;;;;;;;5029601;28;20045;-83
2022/06/10 12:30:02;;;;;;;7.28;1.60;;;;;;;;;;5028422;28;20135;-82
2022/06/10 12:33:08;;;;;;;5.05;1.70;;;;;;;;;;5028975;28;20044;-82
2022/06/10 12:38:39;;;;;;;7.05;1.80;;;;;;;;;;4948913;28;20061;-82
2022/06/10 12:41:17;;;;;;;4.25;1.48;;;;;;;;;;4951453;28;20049;-83
2022/06/10 12:43:58;;;;;;;5.45;1.77;;;;;;;;;;4920124;28;20074;-83
2022/06/10 12:46:43;;;;;;;5.55;1.45;;;;;;;;;;4951340;28;20069;-83
2022/06/10 12:49:39;;;;;;;7.35;1.88;;;;;;;;;;4950810;28;20806;-83
2022/06/10 12:52:33;;;;;;;5.68;1.80;;;;;;;;;;4951693;28;20090;-82
2022/06/10 12:55:04;;;;;;;3.35;1.60;;;;;;;;;;4949038;28;20142;-83
2022/06/10 12:57:40;;;;;;;3.78;1.80;;;;;;;;;;4950381;28;20053;-85
2022/06/10 13:00:22;;;;;;;4.43;1.83;;;;;;;;;;4952949;28;20058;-84
2022/06/10 13:03:13;;;;;;;7.88;2.33;;;;;;;;;;4921130;28;20070;-85
2022/06/10 13:05:47;;;;;;;6.85;2.13;;;;;;;;;;4952883;28;20061;-84
2022/06/10 13:08:34;;;;;;;6.82;1.83;;;;;;;;;;4953405;28;20096;-84
2022/06/10 13:11:04;;;;;;;5.65;1.98;;;;;;;;;;4953835;28;20051;-85
2022/06/10 13:13:31;;;;;;;6.40;1.90;;;;;;;;;;5035068;28;20041;-85
2022/06/10 13:16:37;;;;;;;7.27;2.47;;;;;;;;;;5035220;28;20037;-85
2022/06/10 13:19:28;;;;;;;5.03;1.92;;;;;;;;;;5036597;28;20370;-85
2022/06/10 13:21:56;;;;;;;4.57;1.80;;;;;;;;;;5033224;28;20049;-85
2022/06/10 13:24:23;;;;;;;6.95;2.10;;;;;;;;;;5034886;28;20132;-84
2022/06/10 13:26:53;;;;;;;3.85;2.08;;;;;;;;;;5031803;28;20136;-84
2022/06/10 13:29:22;;;;;;;4.85;2.25;;;;;;;;;;5031159;28;20511;-84
2022/06/10 13:31:55;;;;;;;5.85;1.85;;;;;;;;;;5032886;28;20055;-84
2022/06/10 13:34:30;;;;;;;5.43;1.90;;;;;;;;;;5031517;28;20063;-85
2022/06/10 13:37:13;;;;;;;3.93;1.50;;;;;;;;;;5032891;28;20395;-84
2022/06/10 13:39:48;;;;;;;5.28;1.65;;;;;;;;;;5032390;28;20323;-87
2022/06/10 13:42:27;;;;;;;3.00;1.50;;;;;;;;;;5031057;28;20037;-85
2022/06/10 13:45:30;;;;;;;5.22;1.60;;;;;;;;;;5031072;28;20958;-85
2022/06/10 13:48:07;;;;;;;3.95;1.05;;;;;;;;;;5031324;28;20094;-85
2022/06/10 13:50:54;;;;;;;5.18;1.30;;;;;;;;;;5027902;28;20080;-85
2022/06/10 13:53:29;;;;;;;6.10;1.45;;;;;;;;;;5028255;28;20115;-85
2022/06/10 13:56:06;;;;;;;5.28;1.20;;;;;;;;;;5029800;28;20041;-85
2022/06/10 13:58:36;;;;;;;4.72;1.40;;;;;;;;;;5032396;28;20164;-84
2022/06/10 14:01:18;;;;;;;6.88;1.60;;;;;;;;;;5024458;28;20041;-84
2022/06/10 14:03:51;;;;;;;6.30;1.55;;;;;;;;;;5029893;28;20045;-86
2022/06/10 14:06:24;;;;;;;4.97;1.57;;;;;;;;;;5031237;28;20399;-86
2022/06/10 14:08:55;;;;;;;4.53;1.40;;;;;;;;;;5033104;28;20564;-86
2022/06/10 14:12:10;;;;;;;4.68;1.33;;;;;;;;;;5030167;28;20045;-86
2022/06/10 14:15:16;;;;;;;6.13;1.45;;;;;;;;;;5031934;28;20049;-86
2022/06/10 14:17:52;;;;;;;5.63;1.35;;;;;;;;;;5025715;28;20048;-86
2022/06/10 14:20:23;;;;;;;4.25;1.35;;;;;;;;;;5029115;28;20041;-86
2022/06/10 14:23:07;;;;;;;5.00;1.25;;;;;;;;;;5031185;28;20041;-84
2022/06/10 14:25:36;;;;;;;5.90;1.10;;;;;;;;;;5030608;28;20110;-85
2022/06/10 14:28:12;;;;;;;5.03;1.60;;;;;;;;;;5013625;28;20056;-85
2022/06/10 14:30:57;;;;;;;4.53;1.60;;;;;;;;;;5030907;28;20049;-83
2022/06/10 14:33:33;;;;;;;4.55;1.60;;;;;;;;;;5030997;28;20482;-82
2022/06/10 14:36:17;;;;;;;9.02;1.73;;;;;;;;;;5030813;28;20095;-83
2022/06/10 14:39:10;;;;;;;4.63;1.08;;;;;;;;;;5029450;28;20700;-83
2022/06/10 14:42:21;;;;;;;2.53;0.95;;;;;;;;;;5030060;28;20049;-83
2022/06/10 14:44:56;;;;;;;6.82;1.45;;;;;;;;;;5032765;28;20041;-83
2022/06/10 14:47:29;;;;;;;3.63;1.00;;;;;;;;;;5029750;28;20048;-83
2022/06/10 14:50:19;;;;;;;3.55;1.08;;;;;;;;;;5030132;28;20049;-84
2022/06/10 14:52:50;;;;;;;4.72;1.50;;;;;;;;;;5029984;28;20065;-84
2022/06/10 14:55:22;;;;;;;3.15;1.30;;;;;;;;;;5033564;28;20037;-85
2022/06/10 14:57:56;;;;;;;4.45;1.40;;;;;;;;;;5031248;28;20050;-83
2022/06/10 15:00:25;;;;;;;4.65;1.40;;;;;;;;;;5031427;28;20048;-84
2022/06/10 15:02:54;;;;;;;3.10;1.30;;;;;;;;;;5034122;28;20044;-84
2022/06/10 15:08:12;;;;;;;3.63;1.60;;;;;;;;;;5028663;28;20049;-85
2022/06/10 15:11:05;;;;;;;3.80;1.80;;;;;;;;;;5031446;28;20938;-85
2022/06/10 15:13:36;;;;;;;4.45;1.75;;;;;;;;;;5030519;28;20052;-85
2022/06/10 15:16:13;;;;;;;4.35;2.05;;;;;;;;;;5011497;28;20048;-85
2022/06/10 15:18:43;;;;;;;3.97;1.70;;;;;;;;;;5027892;28;20274;-84
2022/06/10 15:21:14;;;;;;;3.35;1.50;;;;;;;;;;5028723;28;20060;-85
2022/06/10 15:23:49;;;;;;;5.47;1.90;;;;;;;;;;5033697;28;20047;-84
2022/06/10 15:26:24;;;;;;;4.47;1.90;;;;;;;;;;5032433;28;20657;-84
2022/06/10 15:28:51;;;;;;;4.03;1.67;;;;;;;;;;5016311;28;20933;-83
2022/06/10 15:31:21;;;;;;;4.22;1.80;;;;;;;;;;5014966;28;20099;-83
2022/06/10 15:33:51;;;;;;;4.13;1.65;;;;;;;;;;5031252;28;20045;-84
2022/06/10 15:42:07;;;;;;;11.38;1.90;;;;;;;;;;5034491;28;20890;-84
2022/06/10 15:44:59;;;;;;;3.97;1.60;;;;;;;;;;5033283;28;20049;-84
2022/06/10 15:47:27;;;;;;;3.78;1.77;;;;;;;;;;5032825;28;20174;-83
2022/06/10 15:49:55;;;;;;;3.78;1.67;;;;;;;;;;5033303;28;20042;-84
2022/06/10 15:52:36;;;;;;;6.32;2.10;;;;;;;;;;5030514;28;20457;-84
2022/06/10 15:58:22;;;;;;;7.93;2.17;;;;;;;;;;5031961;28;20514;-84
2022/06/10 16:01:14;;;;;;;4.82;1.85;;;;;;;;;;5031130;28;20037;-82
2022/06/10 16:03:41;;;;;;;3.95;1.70;;;;;;;;;;5031709;28;20116;-82
2022/06/10 16:06:24;;;;;;;3.33;1.67;;;;;;;;;;5032126;28;20142;-82
2022/06/10 16:08:53;;;;;;;3.00;1.55;;;;;;;;;;5014547;28;20421;-82
2022/06/10 16:11:21;;;;;;;5.47;1.70;;;;;;;;;;5033463;28;20045;-83
2022/06/10 16:13:50;;;;;;;3.92;1.63;;;;;;;;;;5030206;28;20049;-82
2022/06/10 16:16:21;;;;;;;4.00;1.60;;;;;;;;;;5034125;28;20586;-82
2022/06/10 16:18:51;;;;;;;3.00;1.65;;;;;;;;;;5035790;28;20064;-82
2022/06/10 16:21:21;;;;;;;3.50;1.83;;;;;;;;;;5037527;28;20045;-82
2022/06/10 16:23:51;;;;;;;5.47;1.60;;;;;;;;;;5036314;28;20403;-83
2022/06/10 16:26:36;;;;;;;4.15;1.75;;;;;;;;;;5035519;28;20094;-83
2022/06/10 16:29:12;;;;;;;3.75;1.75;;;;;;;;;;5034322;28;20057;-82